Hauptseite
METAR-TAF:

METAR-TAF

Flughäfen :

Belfast City, Nordirland

George Best Belfast City Airport

Breite: 54-36N, Länge: 005-53W, Höhe: 5 m

Beobachtung

Neuester Wetterbericht von vor 28 Minuten, um 14:50 UTC
Wind 12 kt aus Süd/Südost, variierte zwischen Ost/Südost und Süd
Temperatur 16°C
Luftfeuchtigkeit 51%
Luftdruck 1014 hPa
Sichtweite 10 km oder mehr

METAR: EGAC 211450Z AUTO 15012KT 120V190 9999 NCD 16/06 Q1014

Zeit: 16:18 (15:18 UTC)

Prognose

Neuester Wetterbericht von vor 1 Stunde und 23 Minuten, um 13:55 UTC
Gültige Prognose vom 21 um 15 UTC bis 21 um 21 UTC
Wind 12 kt aus Süd/Südost
Sichtweite 10 km oder mehr
keine Wolken unter 1500 m und keine Kumulonimbus oder Gewitterwolken

TAF: EGAC 211355Z 2115/2121 15012KT CAVOK

Wetterbeobachtungen und Prognosen von mehr als 4000 Flughäfen (METAR und TAF Bericht).

Die verfügbaren Stationen werden durch gelbe und rote Markierungen auf der Karte dargestellt.

Führen Sie die Maus auf sie, um den Namen der Station zu sehen.

Darauf klicken, um die Beobachtung von Wetterbeobachtungen und Prognosen zu sehen.

Um die Karte zu ändern : klicken Sie auf den grünen Tasten mit einem schwarzen Kreuz Zum Vergrößern, auf den grünen Button mit einem Gedankenstrich zu verkleinern, oder auf die grünen Pfeile für benachbarte Karten.


METAR-TAF: